• Join FlightAware (Why Join?)
  • Login
  • US Flag 
06:40AM EDT


 

Airport Tracker/Info


-or-


 

Live Flight TrackerFlight Track Log ✈ JZA8436 ✈ 20-May-2013 ✈ CYYC - CYQR

Flight Track Log - Related Links

Times and Time Zones

All times are in EDT time to prevent confusion due to time zone crossing. See the JZA8436 flight status page for this flight to view local times or setup timezone preferences in your user account.

Time Position Orientation Groundspeed Altitude Reporting Facility
EDT Latitude Longitude Course Direction KTS MPH feet Rate Location/Type
01:02PM 51.1000 -114.0667 90° East 150 173 4,100  Level Edmonton Center
01:03PM 51.1167 -114.1167 298° West 180 207 6,100 2,040 Climbing Edmonton Center
01:04PM 51.1667 -114.1000 12° North 200 230 8,200 1,980 Climbing Edmonton Center
01:05PM 51.1833 -114.0333 68° East 240 276 10,100 1,920 Climbing Edmonton Center
01:06PM 51.0975 -113.4099 96° East  Level FlightAware Approximate
01:06PM 51.1667 -113.9333 105° East 250 288 12,100  Level Edmonton Center
01:07PM 51.0881 -113.2589 96° East  Level FlightAware Approximate
01:07PM 51.1167 -113.8167 124° Southeast 270 311 13,500  Level Edmonton Center
01:08PM 51.0833 -113.1076 90° East  Level FlightAware Approximate
01:08PM 51.1000 -113.7167 105° East 290 334 15,000  Level Edmonton Center
01:09PM 51.0667 -113.5667 109° East 300 345 16,100 1,200 Climbing Edmonton Center
01:10PM 51.0667 -113.4333 90° East 310 357 17,500 1,200 Climbing Edmonton Center
01:11PM 51.0667 -113.3000 90° East 310 357 18,500 1,080 Climbing Edmonton Center
01:12PM 51.0667 -113.1667 90° East 310 357 19,700 1,200 Climbing Edmonton Center
01:13PM 51.0667 -113.0333 90° East 310 357 20,900 1,140 Climbing Edmonton Center
01:14PM 51.0500 -112.9000 101° East 310 357 22,000 1,080 Climbing Edmonton Center
01:15PM 51.0500 -112.7500 90° East 310 357 23,100 960 Climbing Edmonton Center
01:16PM 51.0333 -112.6167 101° East 310 357 24,000 900 Climbing Edmonton Center
01:17PM 51.0333 -112.4833 90° East 310 357 24,900 480 Climbing Edmonton Center
01:18PM 51.0333 -112.3500 90° East 320 368 25,000  Climbing Edmonton Center
01:19PM 51.0167 -112.2167 101° East 320 368 25,000  Level Edmonton Center
01:20PM 51.0167 -112.0500 90° East 320 368 25,000  Level Edmonton Center
01:21PM 51.0000 -111.9167 101° East 320 368 25,000  Level Edmonton Center
01:22PM 51.0000 -111.7833 90° East 320 368 25,000  Level Edmonton Center
01:23PM 50.9833 -111.6167 99° East 320 368 25,000  Level Edmonton Center
01:24PM 50.9833 -111.4833 90° East 320 368 25,000  Level Edmonton Center
01:25PM 50.9667 -111.3500 101° East 320 368 25,000  Level Edmonton Center
01:26PM 50.9667 -111.2167 90° East 320 368 25,000  Level Edmonton Center
01:27PM 50.9667 -111.0500 90° East 330 380 25,000  Level Winnipeg Center
01:28PM 50.9667 -110.9167 90° East 330 380 25,000  Level Winnipeg Center
01:29PM 50.9500 -110.7500 99° East 320 368 25,000  Level Winnipeg Center
01:30PM 50.9500 -110.6167 90° East 320 368 25,000  Level Winnipeg Center
01:31PM 50.9333 -110.4833 101° East 320 368 25,000  Level Winnipeg Center
01:32PM 50.9333 -110.3500 90° East 320 368 25,000  Level Winnipeg Center
01:33PM 50.9167 -110.1833 99° East 320 368 25,000  Level Winnipeg Center
01:34PM 50.9000 -110.0833 105° East 310 357 25,000  Level Edmonton Center
01:35PM 50.8833 -109.9333 100° East 310 357 25,000  Level Edmonton Center
01:36PM 50.9000 -109.7667 81° East 320 368 25,000  Level Winnipeg Center
01:37PM 50.9000 -109.6333 90° East 320 368 25,000  Level Winnipeg Center
01:38PM 50.8667 -109.5000 112° Southeast 320 368 25,000  Level Winnipeg Center
01:39PM 50.8667 -109.3667 90° East 320 368 25,000  Level Winnipeg Center
01:40PM 50.8500 -109.2333 101° East 310 357 25,000  Level Edmonton Center
01:41PM 50.8333 -109.0833 100° East 310 357 25,000  Level Edmonton Center
01:42PM 50.8500 -108.9667 77° East 310 357 25,000  Level Edmonton Center
01:43PM 50.8333 -108.8333 101° East 310 357 25,000  Level Edmonton Center
01:44PM 50.8167 -108.6833 100° East 310 357 25,000  Level Edmonton Center
01:45PM 50.8167 -108.5500 90° East 310 357 25,000  Level Edmonton Center
01:46PM 50.8167 -108.4167 90° East 310 357 25,000  Level Edmonton Center
01:47PM 50.8000 -108.2833 101° East 310 357 25,000  Level Winnipeg Center
01:48PM 50.8000 -108.1500 90° East 310 357 25,000  Level Winnipeg Center
01:49PM 50.7833 -108.0000 100° East 310 357 25,000  Level Winnipeg Center
01:50PM 50.7667 -107.8667 101° East 310 357 25,000  Level Winnipeg Center
01:51PM 50.7667 -107.7333 90° East 300 345 25,000  Level Edmonton Center
01:51PM 50.7667 -107.7333 90° East 310 357 25,000  Level Winnipeg Center
01:52PM 50.7667 -107.6000 90° East 310 357 25,000  Level Winnipeg Center
01:53PM 50.7333 -107.4667 112° Southeast 310 357 25,000  Level Winnipeg Center
01:54PM 50.7333 -107.3333 90° East 300 345 25,000  Level Winnipeg Center
01:55PM 50.7333 -107.2000 90° East 310 357 25,000  Level Winnipeg Center
01:56PM 50.7167 -107.0500 100° East 300 345 25,000  Level Winnipeg Center
01:57PM 50.7000 -106.9167 101° East 300 345 25,000  Level Winnipeg Center
01:58PM 50.7000 -106.7833 90° East 300 345 25,000  Level Winnipeg Center
01:59PM 50.6833 -106.6500 101° East 300 345 25,000  Level Winnipeg Center
02:00PM 50.6667 -106.5167 101° East 300 345 25,000  Level Winnipeg Center
02:01PM 50.6667 -106.4167 90° East 300 345 25,000 -600 Level Winnipeg Center
02:02PM 50.6500 -106.2667 100° East 310 357 23,900 -1,680 Descending Winnipeg Center
02:03PM 50.6000 -106.1333 121° Southeast 340 391 21,700 -2,340 Descending Winnipeg Center
02:04PM 50.6000 -106.0000 90° East 340 391 19,300 -2,040 Descending Winnipeg Center
02:05PM 50.5667 -105.8333 107° East 330 380 17,700 -1,800 Descending Winnipeg Center
02:06PM 50.5333 -105.7000 111° Southeast 340 391 15,700 -2,040 Descending Winnipeg Center
02:07PM 50.5167 -105.5500 100° East 320 368 13,700 -1,920 Descending Winnipeg Center
02:08PM 50.4833 -105.4167 111° Southeast 310 357 11,900 -1,920 Descending Winnipeg Center
02:09PM 50.4667 -105.2833 101° East 310 357 9,900 -1,800 Descending Winnipeg Center
02:10PM 50.4500 -105.2000 107° East 270 311 8,400 -1,500 Descending Winnipeg Center
02:11PM 50.4333 -105.1000 105° East 250 288 7,000 -1,380 Descending Winnipeg Center
02:12PM 50.4167 -105.0167 107° East 220 253 5,700 -1,260 Descending Winnipeg Center
02:13PM 50.4000 -104.9333 107° East 190 219 4,600 -1,140 Descending Winnipeg Center